sensor_id;sensor_type;location;lat;lon;timestamp;P1;durP1;ratioP1;P2;durP2;ratioP2
45806;SDS011;31507;51.494;7.518;2022-11-11T00:00:22;6.35;;;2.80;;
45806;SDS011;31507;51.494;7.518;2022-11-11T00:02:49;8.45;;;2.58;;
45806;SDS011;31507;51.494;7.518;2022-11-11T00:05:15;7.30;;;2.53;;
45806;SDS011;31507;51.494;7.518;2022-11-11T00:07:41;9.10;;;2.28;;
45806;SDS011;31507;51.494;7.518;2022-11-11T00:10:07;6.90;;;2.30;;
45806;SDS011;31507;51.494;7.518;2022-11-11T00:12:33;7.45;;;2.42;;
45806;SDS011;31507;51.494;7.518;2022-11-11T00:14:59;5.53;;;2.50;;
45806;SDS011;31507;51.494;7.518;2022-11-11T00:17:25;9.05;;;2.58;;
45806;SDS011;31507;51.494;7.518;2022-11-11T00:20:10;7.13;;;2.58;;
45806;SDS011;31507;51.494;7.518;2022-11-11T00:22:54;6.82;;;3.03;;
45806;SDS011;31507;51.494;7.518;2022-11-11T00:25:39;7.40;;;2.53;;
45806;SDS011;31507;51.494;7.518;2022-11-11T00:28:05;4.75;;;2.28;;
45806;SDS011;31507;51.494;7.518;2022-11-11T00:30:31;11.15;;;2.85;;
45806;SDS011;31507;51.494;7.518;2022-11-11T00:32:56;6.68;;;2.75;;
45806;SDS011;31507;51.494;7.518;2022-11-11T00:35:22;12.18;;;2.78;;
45806;SDS011;31507;51.494;7.518;2022-11-11T00:38:07;7.85;;;2.40;;
45806;SDS011;31507;51.494;7.518;2022-11-11T00:40:34;7.22;;;1.92;;
45806;SDS011;31507;51.494;7.518;2022-11-11T00:42:59;6.47;;;2.25;;
45806;SDS011;31507;51.494;7.518;2022-11-11T00:45:25;7.00;;;2.45;;
45806;SDS011;31507;51.494;7.518;2022-11-11T00:47:50;8.63;;;2.72;;
45806;SDS011;31507;51.494;7.518;2022-11-11T00:50:35;6.85;;;2.60;;
45806;SDS011;31507;51.494;7.518;2022-11-11T00:55:46;6.43;;;2.75;;
45806;SDS011;31507;51.494;7.518;2022-11-11T00:58:12;7.50;;;2.33;;
45806;SDS011;31507;51.494;7.518;2022-11-11T01:00:37;5.63;;;2.05;;
45806;SDS011;31507;51.494;7.518;2022-11-11T01:03:03;5.65;;;2.15;;
45806;SDS011;31507;51.494;7.518;2022-11-11T01:05:29;6.05;;;2.20;;
45806;SDS011;31507;51.494;7.518;2022-11-11T01:07:54;6.32;;;1.90;;
45806;SDS011;31507;51.494;7.518;2022-11-11T01:10:20;4.82;;;2.00;;
45806;SDS011;31507;51.494;7.518;2022-11-11T01:13:02;8.32;;;2.30;;
45806;SDS011;31507;51.494;7.518;2022-11-11T01:15:49;8.38;;;2.22;;
45806;SDS011;31507;51.494;7.518;2022-11-11T01:18:19;8.55;;;2.25;;
45806;SDS011;31507;51.494;7.518;2022-11-11T01:20:47;5.15;;;2.05;;
45806;SDS011;31507;51.494;7.518;2022-11-11T01:23:21;8.38;;;2.25;;
45806;SDS011;31507;51.494;7.518;2022-11-11T01:25:46;6.82;;;2.50;;
45806;SDS011;31507;51.494;7.518;2022-11-11T01:28:13;9.35;;;2.40;;
45806;SDS011;31507;51.494;7.518;2022-11-11T01:30:39;6.00;;;2.53;;
45806;SDS011;31507;51.494;7.518;2022-11-11T01:33:04;7.68;;;2.25;;
45806;SDS011;31507;51.494;7.518;2022-11-11T01:35:30;7.47;;;2.17;;
45806;SDS011;31507;51.494;7.518;2022-11-11T01:37:56;9.57;;;2.50;;
45806;SDS011;31507;51.494;7.518;2022-11-11T01:40:23;7.20;;;2.17;;
45806;SDS011;31507;51.494;7.518;2022-11-11T01:43:34;5.90;;;2.13;;
45806;SDS011;31507;51.494;7.518;2022-11-11T01:48:33;4.82;;;1.98;;
45806;SDS011;31507;51.494;7.518;2022-11-11T01:51:33;5.13;;;1.92;;
45806;SDS011;31507;51.494;7.518;2022-11-11T01:54:09;7.30;;;1.88;;
45806;SDS011;31507;51.494;7.518;2022-11-11T01:56:38;6.10;;;2.20;;
45806;SDS011;31507;51.494;7.518;2022-11-11T01:59:08;5.07;;;2.08;;
45806;SDS011;31507;51.494;7.518;2022-11-11T02:01:37;6.93;;;1.85;;
45806;SDS011;31507;51.494;7.518;2022-11-11T02:04:03;3.63;;;1.88;;
45806;SDS011;31507;51.494;7.518;2022-11-11T02:06:52;5.35;;;2.10;;
45806;SDS011;31507;51.494;7.518;2022-11-11T02:09:20;5.20;;;2.28;;
45806;SDS011;31507;51.494;7.518;2022-11-11T02:11:49;6.10;;;2.05;;
45806;SDS011;31507;51.494;7.518;2022-11-11T02:14:36;5.78;;;2.20;;
45806;SDS011;31507;51.494;7.518;2022-11-11T02:17:09;4.28;;;1.88;;
45806;SDS011;31507;51.494;7.518;2022-11-11T02:22:03;6.82;;;2.42;;
45806;SDS011;31507;51.494;7.518;2022-11-11T02:24:35;6.60;;;2.20;;
45806;SDS011;31507;51.494;7.518;2022-11-11T02:27:02;4.75;;;1.83;;
45806;SDS011;31507;51.494;7.518;2022-11-11T02:29:32;5.97;;;1.88;;
45806;SDS011;31507;51.494;7.518;2022-11-11T02:31:58;5.90;;;2.00;;
45806;SDS011;31507;51.494;7.518;2022-11-11T02:34:28;3.22;;;1.70;;
45806;SDS011;31507;51.494;7.518;2022-11-11T02:36:55;9.10;;;2.25;;
45806;SDS011;31507;51.494;7.518;2022-11-11T02:39:20;7.13;;;2.10;;
45806;SDS011;31507;51.494;7.518;2022-11-11T02:41:46;6.03;;;2.00;;
45806;SDS011;31507;51.494;7.518;2022-11-11T02:44:21;5.93;;;1.95;;
45806;SDS011;31507;51.494;7.518;2022-11-11T02:46:48;6.20;;;1.88;;
45806;SDS011;31507;51.494;7.518;2022-11-11T02:49:13;6.65;;;2.10;;
45806;SDS011;31507;51.494;7.518;2022-11-11T02:51:39;5.15;;;2.10;;
45806;SDS011;31507;51.494;7.518;2022-11-11T02:54:05;5.85;;;2.03;;
45806;SDS011;31507;51.494;7.518;2022-11-11T02:56:30;3.50;;;1.88;;
45806;SDS011;31507;51.494;7.518;2022-11-11T02:59:14;5.63;;;1.88;;
45806;SDS011;31507;51.494;7.518;2022-11-11T03:01:40;6.57;;;1.98;;
45806;SDS011;31507;51.494;7.518;2022-11-11T03:04:05;6.72;;;2.08;;
45806;SDS011;31507;51.494;7.518;2022-11-11T03:06:31;5.07;;;1.90;;
45806;SDS011;31507;51.494;7.518;2022-11-11T03:08:57;5.72;;;2.15;;
45806;SDS011;31507;51.494;7.518;2022-11-11T03:11:22;7.50;;;2.50;;
45806;SDS011;31507;51.494;7.518;2022-11-11T03:13:54;5.85;;;1.73;;
45806;SDS011;31507;51.494;7.518;2022-11-11T03:16:23;5.60;;;1.90;;
45806;SDS011;31507;51.494;7.518;2022-11-11T03:19:08;4.65;;;2.08;;
45806;SDS011;31507;51.494;7.518;2022-11-11T03:21:34;3.30;;;1.60;;
45806;SDS011;31507;51.494;7.518;2022-11-11T03:23:59;5.90;;;2.00;;
45806;SDS011;31507;51.494;7.518;2022-11-11T03:26:25;9.55;;;1.80;;
45806;SDS011;31507;51.494;7.518;2022-11-11T03:28:50;5.93;;;2.08;;
45806;SDS011;31507;51.494;7.518;2022-11-11T03:31:16;4.80;;;1.60;;
45806;SDS011;31507;51.494;7.518;2022-11-11T03:33:42;8.40;;;2.00;;
45806;SDS011;31507;51.494;7.518;2022-11-11T03:36:08;7.07;;;1.95;;
45806;SDS011;31507;51.494;7.518;2022-11-11T03:38:34;5.18;;;1.75;;
45806;SDS011;31507;51.494;7.518;2022-11-11T03:41:00;6.15;;;1.80;;
45806;SDS011;31507;51.494;7.518;2022-11-11T03:43:26;5.38;;;1.98;;
45806;SDS011;31507;51.494;7.518;2022-11-11T03:45:57;5.97;;;1.70;;
45806;SDS011;31507;51.494;7.518;2022-11-11T03:48:24;6.97;;;2.22;;
45806;SDS011;31507;51.494;7.518;2022-11-11T03:50:51;8.38;;;1.95;;
45806;SDS011;31507;51.494;7.518;2022-11-11T03:53:17;5.78;;;1.85;;
45806;SDS011;31507;51.494;7.518;2022-11-11T03:55:44;4.43;;;1.60;;
45806;SDS011;31507;51.494;7.518;2022-11-11T03:58:10;5.10;;;1.83;;
45806;SDS011;31507;51.494;7.518;2022-11-11T04:00:36;6.57;;;1.90;;
45806;SDS011;31507;51.494;7.518;2022-11-11T04:03:12;5.93;;;2.40;;
45806;SDS011;31507;51.494;7.518;2022-11-11T04:05:57;3.83;;;1.73;;
45806;SDS011;31507;51.494;7.518;2022-11-11T04:08:42;3.92;;;1.70;;
45806;SDS011;31507;51.494;7.518;2022-11-11T04:14:00;3.70;;;2.10;;
45806;SDS011;31507;51.494;7.518;2022-11-11T04:16:47;5.10;;;2.13;;
45806;SDS011;31507;51.494;7.518;2022-11-11T04:19:13;5.00;;;2.08;;
45806;SDS011;31507;51.494;7.518;2022-11-11T04:21:58;6.75;;;2.33;;
45806;SDS011;31507;51.494;7.518;2022-11-11T04:24:23;7.97;;;2.15;;
45806;SDS011;31507;51.494;7.518;2022-11-11T04:27:14;3.78;;;1.92;;
45806;SDS011;31507;51.494;7.518;2022-11-11T04:29:41;4.82;;;2.25;;
45806;SDS011;31507;51.494;7.518;2022-11-11T04:32:11;5.72;;;2.08;;
45806;SDS011;31507;51.494;7.518;2022-11-11T04:34:58;6.55;;;1.60;;
45806;SDS011;31507;51.494;7.518;2022-11-11T04:37:30;5.88;;;2.33;;
45806;SDS011;31507;51.494;7.518;2022-11-11T04:39:56;8.77;;;2.20;;
45806;SDS011;31507;51.494;7.518;2022-11-11T04:45:08;7.28;;;2.53;;
45806;SDS011;31507;51.494;7.518;2022-11-11T04:47:54;5.25;;;2.13;;
45806;SDS011;31507;51.494;7.518;2022-11-11T04:50:21;5.00;;;2.08;;
45806;SDS011;31507;51.494;7.518;2022-11-11T04:52:48;3.05;;;1.70;;
45806;SDS011;31507;51.494;7.518;2022-11-11T04:55:13;5.68;;;1.80;;
45806;SDS011;31507;51.494;7.518;2022-11-11T04:57:58;7.55;;;2.17;;
45806;SDS011;31507;51.494;7.518;2022-11-11T05:00:23;5.10;;;1.58;;
45806;SDS011;31507;51.494;7.518;2022-11-11T05:02:52;4.88;;;1.55;;
45806;SDS011;31507;51.494;7.518;2022-11-11T05:05:37;6.03;;;1.77;;
45806;SDS011;31507;51.494;7.518;2022-11-11T05:08:22;2.70;;;1.38;;
45806;SDS011;31507;51.494;7.518;2022-11-11T05:11:06;3.83;;;1.75;;
45806;SDS011;31507;51.494;7.518;2022-11-11T05:13:32;6.68;;;1.88;;
45806;SDS011;31507;51.494;7.518;2022-11-11T05:16:17;4.47;;;1.70;;
45806;SDS011;31507;51.494;7.518;2022-11-11T05:19:11;7.80;;;2.10;;
45806;SDS011;31507;51.494;7.518;2022-11-11T05:21:56;4.93;;;1.80;;
45806;SDS011;31507;51.494;7.518;2022-11-11T05:24:32;3.47;;;1.60;;
45806;SDS011;31507;51.494;7.518;2022-11-11T05:27:16;3.97;;;1.45;;
45806;SDS011;31507;51.494;7.518;2022-11-11T05:29:42;6.80;;;1.90;;
45806;SDS011;31507;51.494;7.518;2022-11-11T05:32:07;4.65;;;1.90;;
45806;SDS011;31507;51.494;7.518;2022-11-11T05:34:33;9.40;;;1.92;;
45806;SDS011;31507;51.494;7.518;2022-11-11T05:36:59;6.85;;;1.80;;
45806;SDS011;31507;51.494;7.518;2022-11-11T05:39:24;5.30;;;1.65;;
45806;SDS011;31507;51.494;7.518;2022-11-11T05:41:50;7.15;;;2.10;;
45806;SDS011;31507;51.494;7.518;2022-11-11T05:44:15;4.32;;;2.05;;
45806;SDS011;31507;51.494;7.518;2022-11-11T05:46:41;4.90;;;1.95;;
45806;SDS011;31507;51.494;7.518;2022-11-11T05:49:07;4.88;;;1.58;;
45806;SDS011;31507;51.494;7.518;2022-11-11T05:51:42;3.88;;;1.65;;
45806;SDS011;31507;51.494;7.518;2022-11-11T05:54:09;4.15;;;1.75;;
45806;SDS011;31507;51.494;7.518;2022-11-11T05:56:35;5.97;;;1.75;;
45806;SDS011;31507;51.494;7.518;2022-11-11T05:59:00;5.68;;;1.83;;
45806;SDS011;31507;51.494;7.518;2022-11-11T06:01:26;3.72;;;1.42;;
45806;SDS011;31507;51.494;7.518;2022-11-11T06:03:51;5.03;;;1.98;;
45806;SDS011;31507;51.494;7.518;2022-11-11T06:06:17;4.07;;;1.70;;
45806;SDS011;31507;51.494;7.518;2022-11-11T06:08:43;5.80;;;1.40;;
45806;SDS011;31507;51.494;7.518;2022-11-11T06:11:08;5.18;;;1.73;;
45806;SDS011;31507;51.494;7.518;2022-11-11T06:13:34;5.75;;;1.70;;
45806;SDS011;31507;51.494;7.518;2022-11-11T06:16:00;5.22;;;2.13;;
45806;SDS011;31507;51.494;7.518;2022-11-11T06:18:26;5.18;;;1.95;;
45806;SDS011;31507;51.494;7.518;2022-11-11T06:20:55;4.28;;;1.58;;
45806;SDS011;31507;51.494;7.518;2022-11-11T06:23:23;5.45;;;2.08;;
45806;SDS011;31507;51.494;7.518;2022-11-11T06:25:49;3.65;;;1.77;;
45806;SDS011;31507;51.494;7.518;2022-11-11T06:28:34;3.55;;;1.73;;
45806;SDS011;31507;51.494;7.518;2022-11-11T06:31:00;5.43;;;2.17;;
45806;SDS011;31507;51.494;7.518;2022-11-11T06:33:26;7.55;;;2.10;;
45806;SDS011;31507;51.494;7.518;2022-11-11T06:35:52;5.22;;;2.08;;
45806;SDS011;31507;51.494;7.518;2022-11-11T06:38:17;4.05;;;2.03;;
45806;SDS011;31507;51.494;7.518;2022-11-11T06:40:44;3.97;;;1.85;;
45806;SDS011;31507;51.494;7.518;2022-11-11T06:43:10;3.80;;;1.70;;
45806;SDS011;31507;51.494;7.518;2022-11-11T06:45:36;4.38;;;1.90;;
45806;SDS011;31507;51.494;7.518;2022-11-11T06:48:02;8.02;;;2.00;;
45806;SDS011;31507;51.494;7.518;2022-11-11T06:50:30;9.05;;;2.33;;
45806;SDS011;31507;51.494;7.518;2022-11-11T06:53:02;4.50;;;2.00;;
45806;SDS011;31507;51.494;7.518;2022-11-11T06:55:29;5.10;;;2.30;;
45806;SDS011;31507;51.494;7.518;2022-11-11T06:57:55;6.22;;;2.40;;
45806;SDS011;31507;51.494;7.518;2022-11-11T07:00:28;7.50;;;2.17;;
45806;SDS011;31507;51.494;7.518;2022-11-11T07:02:54;8.10;;;2.30;;
45806;SDS011;31507;51.494;7.518;2022-11-11T07:05:19;6.05;;;2.03;;
45806;SDS011;31507;51.494;7.518;2022-11-11T07:07:45;4.75;;;2.00;;
45806;SDS011;31507;51.494;7.518;2022-11-11T07:10:11;7.22;;;2.20;;
45806;SDS011;31507;51.494;7.518;2022-11-11T07:12:39;7.18;;;2.45;;
45806;SDS011;31507;51.494;7.518;2022-11-11T07:15:05;9.18;;;2.22;;
45806;SDS011;31507;51.494;7.518;2022-11-11T07:17:31;8.00;;;2.03;;
45806;SDS011;31507;51.494;7.518;2022-11-11T07:19:57;5.88;;;2.22;;
45806;SDS011;31507;51.494;7.518;2022-11-11T07:22:22;4.78;;;2.20;;
45806;SDS011;31507;51.494;7.518;2022-11-11T07:24:48;4.75;;;1.88;;
45806;SDS011;31507;51.494;7.518;2022-11-11T07:27:13;15.88;;;2.70;;
45806;SDS011;31507;51.494;7.518;2022-11-11T07:29:39;11.57;;;2.40;;
45806;SDS011;31507;51.494;7.518;2022-11-11T07:32:05;5.88;;;2.63;;
45806;SDS011;31507;51.494;7.518;2022-11-11T07:34:32;5.78;;;2.30;;
45806;SDS011;31507;51.494;7.518;2022-11-11T07:36:58;10.05;;;2.55;;
45806;SDS011;31507;51.494;7.518;2022-11-11T07:39:24;4.15;;;2.03;;
45806;SDS011;31507;51.494;7.518;2022-11-11T07:41:51;7.97;;;2.55;;
45806;SDS011;31507;51.494;7.518;2022-11-11T07:44:17;5.32;;;2.63;;
45806;SDS011;31507;51.494;7.518;2022-11-11T07:46:42;4.88;;;1.92;;
45806;SDS011;31507;51.494;7.518;2022-11-11T07:49:08;7.45;;;2.20;;
45806;SDS011;31507;51.494;7.518;2022-11-11T07:51:34;5.82;;;2.03;;
45806;SDS011;31507;51.494;7.518;2022-11-11T07:53:59;5.57;;;1.88;;
45806;SDS011;31507;51.494;7.518;2022-11-11T07:56:25;5.68;;;1.90;;
45806;SDS011;31507;51.494;7.518;2022-11-11T07:58:51;6.38;;;2.22;;
45806;SDS011;31507;51.494;7.518;2022-11-11T08:01:17;6.70;;;2.00;;
45806;SDS011;31507;51.494;7.518;2022-11-11T08:03:43;5.78;;;2.47;;
45806;SDS011;31507;51.494;7.518;2022-11-11T08:06:18;3.67;;;2.30;;
45806;SDS011;31507;51.494;7.518;2022-11-11T08:08:44;7.78;;;2.50;;
45806;SDS011;31507;51.494;7.518;2022-11-11T08:11:10;7.50;;;2.40;;
45806;SDS011;31507;51.494;7.518;2022-11-11T08:13:37;4.95;;;2.58;;
45806;SDS011;31507;51.494;7.518;2022-11-11T08:16:06;5.00;;;2.70;;
45806;SDS011;31507;51.494;7.518;2022-11-11T08:18:32;7.55;;;2.20;;
45806;SDS011;31507;51.494;7.518;2022-11-11T08:20:59;5.35;;;2.40;;
45806;SDS011;31507;51.494;7.518;2022-11-11T08:23:25;11.90;;;2.67;;
45806;SDS011;31507;51.494;7.518;2022-11-11T08:26:00;6.03;;;2.60;;
45806;SDS011;31507;51.494;7.518;2022-11-11T08:28:28;7.78;;;2.55;;
45806;SDS011;31507;51.494;7.518;2022-11-11T08:30:57;4.07;;;2.00;;
45806;SDS011;31507;51.494;7.518;2022-11-11T08:33:23;5.78;;;2.47;;
45806;SDS011;31507;51.494;7.518;2022-11-11T08:35:50;3.45;;;1.73;;
45806;SDS011;31507;51.494;7.518;2022-11-11T08:38:18;8.52;;;2.35;;
45806;SDS011;31507;51.494;7.518;2022-11-11T08:40:45;8.60;;;2.70;;
45806;SDS011;31507;51.494;7.518;2022-11-11T08:43:10;6.15;;;2.55;;
45806;SDS011;31507;51.494;7.518;2022-11-11T08:45:36;4.80;;;2.28;;
45806;SDS011;31507;51.494;7.518;2022-11-11T08:48:02;4.43;;;2.15;;
45806;SDS011;31507;51.494;7.518;2022-11-11T08:50:28;6.43;;;2.60;;
45806;SDS011;31507;51.494;7.518;2022-11-11T08:52:54;4.13;;;2.05;;
45806;SDS011;31507;51.494;7.518;2022-11-11T08:55:20;6.00;;;1.95;;
45806;SDS011;31507;51.494;7.518;2022-11-11T08:57:46;4.65;;;2.33;;
45806;SDS011;31507;51.494;7.518;2022-11-11T09:00:12;5.15;;;1.60;;
45806;SDS011;31507;51.494;7.518;2022-11-11T09:02:38;5.13;;;2.00;;
45806;SDS011;31507;51.494;7.518;2022-11-11T09:05:04;10.90;;;2.00;;
45806;SDS011;31507;51.494;7.518;2022-11-11T09:07:31;3.58;;;1.90;;
45806;SDS011;31507;51.494;7.518;2022-11-11T09:09:57;4.63;;;2.03;;
45806;SDS011;31507;51.494;7.518;2022-11-11T09:12:22;9.93;;;2.58;;
45806;SDS011;31507;51.494;7.518;2022-11-11T09:14:48;5.68;;;2.42;;
45806;SDS011;31507;51.494;7.518;2022-11-11T09:17:14;4.15;;;2.00;;
45806;SDS011;31507;51.494;7.518;2022-11-11T09:19:40;5.00;;;2.10;;
45806;SDS011;31507;51.494;7.518;2022-11-11T09:22:06;4.05;;;2.40;;
45806;SDS011;31507;51.494;7.518;2022-11-11T09:24:31;3.53;;;1.92;;
45806;SDS011;31507;51.494;7.518;2022-11-11T09:26:57;5.47;;;1.83;;
45806;SDS011;31507;51.494;7.518;2022-11-11T09:29:23;4.75;;;2.22;;
45806;SDS011;31507;51.494;7.518;2022-11-11T09:31:48;34.83;;;4.43;;
45806;SDS011;31507;51.494;7.518;2022-11-11T09:34:14;14.50;;;2.70;;
45806;SDS011;31507;51.494;7.518;2022-11-11T09:36:40;3.85;;;1.92;;
45806;SDS011;31507;51.494;7.518;2022-11-11T09:39:06;6.38;;;1.95;;
45806;SDS011;31507;51.494;7.518;2022-11-11T09:49:55;3.38;;;1.38;;
45806;SDS011;31507;51.494;7.518;2022-11-11T09:55:26;2.80;;;1.73;;
45806;SDS011;31507;51.494;7.518;2022-11-11T09:57:58;4.13;;;1.58;;
45806;SDS011;31507;51.494;7.518;2022-11-11T10:01:05;8.23;;;1.67;;
45806;SDS011;31507;51.494;7.518;2022-11-11T10:03:43;5.28;;;1.60;;
45806;SDS011;31507;51.494;7.518;2022-11-11T10:06:14;3.42;;;1.60;;
45806;SDS011;31507;51.494;7.518;2022-11-11T10:11:24;2.75;;;1.10;;
45806;SDS011;31507;51.494;7.518;2022-11-11T10:13:59;3.67;;;1.33;;
45806;SDS011;31507;51.494;7.518;2022-11-11T10:16:46;4.85;;;1.65;;
45806;SDS011;31507;51.494;7.518;2022-11-11T10:19:36;3.97;;;1.25;;
45806;SDS011;31507;51.494;7.518;2022-11-11T10:27:41;2.60;;;1.13;;
45806;SDS011;31507;51.494;7.518;2022-11-11T10:32:52;5.50;;;1.63;;
45806;SDS011;31507;51.494;7.518;2022-11-11T10:35:23;3.97;;;1.30;;
45806;SDS011;31507;51.494;7.518;2022-11-11T10:40:41;3.60;;;1.10;;
45806;SDS011;31507;51.494;7.518;2022-11-11T10:43:17;3.47;;;1.48;;
45806;SDS011;31507;51.494;7.518;2022-11-11T10:48:39;2.75;;;1.08;;
45806;SDS011;31507;51.494;7.518;2022-11-11T10:52:00;2.17;;;1.00;;
45806;SDS011;31507;51.494;7.518;2022-11-11T10:54:40;1.92;;;1.08;;
45806;SDS011;31507;51.494;7.518;2022-11-11T10:57:21;3.17;;;1.10;;
45806;SDS011;31507;51.494;7.518;2022-11-11T11:00:05;2.70;;;1.20;;
45806;SDS011;31507;51.494;7.518;2022-11-11T11:05:36;2.08;;;0.90;;
45806;SDS011;31507;51.494;7.518;2022-11-11T11:08:14;2.53;;;1.17;;
45806;SDS011;31507;51.494;7.518;2022-11-11T11:11:02;2.95;;;1.20;;
45806;SDS011;31507;51.494;7.518;2022-11-11T11:13:52;2.20;;;0.85;;
45806;SDS011;31507;51.494;7.518;2022-11-11T11:16:24;2.10;;;1.17;;
45806;SDS011;31507;51.494;7.518;2022-11-11T11:19:15;3.25;;;1.00;;
45806;SDS011;31507;51.494;7.518;2022-11-11T11:21:56;1.25;;;0.80;;
45806;SDS011;31507;51.494;7.518;2022-11-11T11:26:55;2.67;;;1.20;;
45806;SDS011;31507;51.494;7.518;2022-11-11T11:32:18;2.92;;;0.90;;
45806;SDS011;31507;51.494;7.518;2022-11-11T11:34:51;2.90;;;0.93;;
45806;SDS011;31507;51.494;7.518;2022-11-11T11:37:19;4.80;;;1.20;;
45806;SDS011;31507;51.494;7.518;2022-11-11T11:39:46;5.10;;;1.20;;
45806;SDS011;31507;51.494;7.518;2022-11-11T11:42:25;3.80;;;1.23;;
45806;SDS011;31507;51.494;7.518;2022-11-11T11:44:56;3.20;;;1.20;;
45806;SDS011;31507;51.494;7.518;2022-11-11T11:50:43;1.75;;;1.10;;
45806;SDS011;31507;51.494;7.518;2022-11-11T11:59:21;2.65;;;1.23;;
45806;SDS011;31507;51.494;7.518;2022-11-11T12:07:32;1.95;;;1.10;;
45806;SDS011;31507;51.494;7.518;2022-11-11T12:10:27;3.20;;;1.08;;
45806;SDS011;31507;51.494;7.518;2022-11-11T12:13:11;2.55;;;1.10;;
45806;SDS011;31507;51.494;7.518;2022-11-11T12:15:42;5.22;;;1.27;;
45806;SDS011;31507;51.494;7.518;2022-11-11T12:21:20;3.00;;;0.93;;
45806;SDS011;31507;51.494;7.518;2022-11-11T12:24:00;2.72;;;1.25;;
45806;SDS011;31507;51.494;7.518;2022-11-11T12:32:30;3.17;;;1.15;;
45806;SDS011;31507;51.494;7.518;2022-11-11T12:35:14;7.05;;;1.45;;
45806;SDS011;31507;51.494;7.518;2022-11-11T12:49:14;1.20;;;0.93;;
45806;SDS011;31507;51.494;7.518;2022-11-11T12:57:53;4.32;;;1.10;;
45806;SDS011;31507;51.494;7.518;2022-11-11T13:00:24;2.10;;;1.15;;
45806;SDS011;31507;51.494;7.518;2022-11-11T13:03:33;3.55;;;1.00;;
45806;SDS011;31507;51.494;7.518;2022-11-11T13:06:12;1.15;;;0.90;;
45806;SDS011;31507;51.494;7.518;2022-11-11T13:11:47;4.85;;;1.63;;
45806;SDS011;31507;51.494;7.518;2022-11-11T13:17:05;3.10;;;1.23;;
45806;SDS011;31507;51.494;7.518;2022-11-11T13:19:37;5.60;;;1.50;;
45806;SDS011;31507;51.494;7.518;2022-11-11T13:22:12;3.05;;;0.90;;
45806;SDS011;31507;51.494;7.518;2022-11-11T13:24:46;2.60;;;1.17;;
45806;SDS011;31507;51.494;7.518;2022-11-11T13:27:15;2.72;;;1.42;;
45806;SDS011;31507;51.494;7.518;2022-11-11T13:32:54;2.70;;;1.08;;
45806;SDS011;31507;51.494;7.518;2022-11-11T13:35:34;3.05;;;1.10;;
45806;SDS011;31507;51.494;7.518;2022-11-11T13:38:04;5.68;;;1.00;;
45806;SDS011;31507;51.494;7.518;2022-11-11T13:42:59;4.05;;;1.15;;
45806;SDS011;31507;51.494;7.518;2022-11-11T13:45:28;1.90;;;0.90;;
45806;SDS011;31507;51.494;7.518;2022-11-11T13:47:58;1.73;;;0.90;;
45806;SDS011;31507;51.494;7.518;2022-11-11T13:53:03;2.97;;;1.00;;
45806;SDS011;31507;51.494;7.518;2022-11-11T13:58:00;1.17;;;0.80;;
45806;SDS011;31507;51.494;7.518;2022-11-11T14:00:30;3.38;;;0.90;;
45806;SDS011;31507;51.494;7.518;2022-11-11T14:05:38;3.17;;;1.10;;
45806;SDS011;31507;51.494;7.518;2022-11-11T14:08:03;1.92;;;1.00;;
45806;SDS011;31507;51.494;7.518;2022-11-11T14:15:45;1.55;;;0.85;;
45806;SDS011;31507;51.494;7.518;2022-11-11T14:25:49;1.83;;;0.90;;
45806;SDS011;31507;51.494;7.518;2022-11-11T14:30:51;3.00;;;0.90;;
45806;SDS011;31507;51.494;7.518;2022-11-11T14:33:34;2.40;;;1.00;;
45806;SDS011;31507;51.494;7.518;2022-11-11T14:38:52;2.53;;;1.10;;
45806;SDS011;31507;51.494;7.518;2022-11-11T14:44:55;2.80;;;1.30;;
45806;SDS011;31507;51.494;7.518;2022-11-11T14:49:44;3.17;;;1.17;;
45806;SDS011;31507;51.494;7.518;2022-11-11T14:57:48;1.48;;;0.98;;
45806;SDS011;31507;51.494;7.518;2022-11-11T15:00:57;7.03;;;1.75;;
45806;SDS011;31507;51.494;7.518;2022-11-11T15:05:47;6.10;;;1.58;;
45806;SDS011;31507;51.494;7.518;2022-11-11T15:08:24;2.17;;;1.20;;
45806;SDS011;31507;51.494;7.518;2022-11-11T15:11:05;3.58;;;1.40;;
45806;SDS011;31507;51.494;7.518;2022-11-11T15:21:35;9.55;;;1.40;;
45806;SDS011;31507;51.494;7.518;2022-11-11T15:37:25;3.90;;;1.17;;
45806;SDS011;31507;51.494;7.518;2022-11-11T15:39:54;1.77;;;1.10;;
45806;SDS011;31507;51.494;7.518;2022-11-11T15:47:43;3.95;;;1.60;;
45806;SDS011;31507;51.494;7.518;2022-11-11T15:50:17;4.45;;;1.33;;
45806;SDS011;31507;51.494;7.518;2022-11-11T15:52:42;2.70;;;1.53;;
45806;SDS011;31507;51.494;7.518;2022-11-11T15:55:17;4.53;;;2.78;;
45806;SDS011;31507;51.494;7.518;2022-11-11T15:57:46;3.28;;;2.40;;
45806;SDS011;31507;51.494;7.518;2022-11-11T16:00:23;2.30;;;1.60;;
45806;SDS011;31507;51.494;7.518;2022-11-11T16:02:50;5.05;;;2.20;;
45806;SDS011;31507;51.494;7.518;2022-11-11T16:05:26;3.65;;;1.90;;
45806;SDS011;31507;51.494;7.518;2022-11-11T16:07:55;4.85;;;2.20;;
45806;SDS011;31507;51.494;7.518;2022-11-11T16:12:55;2.88;;;1.60;;
45806;SDS011;31507;51.494;7.518;2022-11-11T16:17:56;6.05;;;2.03;;
45806;SDS011;31507;51.494;7.518;2022-11-11T16:20:29;2.85;;;2.10;;
45806;SDS011;31507;51.494;7.518;2022-11-11T16:23:06;4.10;;;1.90;;
45806;SDS011;31507;51.494;7.518;2022-11-11T16:25:33;4.40;;;2.00;;
45806;SDS011;31507;51.494;7.518;2022-11-11T16:27:59;7.85;;;1.73;;
45806;SDS011;31507;51.494;7.518;2022-11-11T16:32:58;3.67;;;1.70;;
45806;SDS011;31507;51.494;7.518;2022-11-11T16:35:31;3.00;;;1.73;;
45806;SDS011;31507;51.494;7.518;2022-11-11T16:38:03;2.95;;;1.67;;
45806;SDS011;31507;51.494;7.518;2022-11-11T16:46:04;5.65;;;1.60;;
45806;SDS011;31507;51.494;7.518;2022-11-11T16:51:13;4.03;;;1.88;;
45806;SDS011;31507;51.494;7.518;2022-11-11T16:54:07;9.77;;;2.00;;
45806;SDS011;31507;51.494;7.518;2022-11-11T16:56:37;5.90;;;1.92;;
45806;SDS011;31507;51.494;7.518;2022-11-11T16:59:10;4.13;;;1.92;;
45806;SDS011;31507;51.494;7.518;2022-11-11T17:01:44;4.05;;;1.63;;
45806;SDS011;31507;51.494;7.518;2022-11-11T17:04:11;2.55;;;1.60;;
45806;SDS011;31507;51.494;7.518;2022-11-11T17:06:56;2.80;;;1.70;;
45806;SDS011;31507;51.494;7.518;2022-11-11T17:11:53;3.58;;;1.83;;
45806;SDS011;31507;51.494;7.518;2022-11-11T17:14:18;5.78;;;2.33;;
45806;SDS011;31507;51.494;7.518;2022-11-11T17:16:44;6.18;;;2.13;;
45806;SDS011;31507;51.494;7.518;2022-11-11T17:19:10;9.45;;;3.47;;
45806;SDS011;31507;51.494;7.518;2022-11-11T17:21:35;9.57;;;3.55;;
45806;SDS011;31507;51.494;7.518;2022-11-11T17:24:01;5.10;;;2.90;;
45806;SDS011;31507;51.494;7.518;2022-11-11T17:26:26;5.88;;;2.42;;
45806;SDS011;31507;51.494;7.518;2022-11-11T17:28:54;4.40;;;2.03;;
45806;SDS011;31507;51.494;7.518;2022-11-11T17:31:20;2.97;;;1.88;;
45806;SDS011;31507;51.494;7.518;2022-11-11T17:33:47;3.95;;;2.05;;
45806;SDS011;31507;51.494;7.518;2022-11-11T17:36:13;3.88;;;1.90;;
45806;SDS011;31507;51.494;7.518;2022-11-11T17:38:39;6.45;;;2.40;;
45806;SDS011;31507;51.494;7.518;2022-11-11T17:41:05;4.50;;;1.92;;
45806;SDS011;31507;51.494;7.518;2022-11-11T17:43:31;5.47;;;2.60;;
45806;SDS011;31507;51.494;7.518;2022-11-11T17:46:03;5.47;;;1.95;;
45806;SDS011;31507;51.494;7.518;2022-11-11T17:48:28;8.35;;;3.08;;
45806;SDS011;31507;51.494;7.518;2022-11-11T17:50:54;8.13;;;2.97;;
45806;SDS011;31507;51.494;7.518;2022-11-11T17:53:20;5.72;;;3.22;;
45806;SDS011;31507;51.494;7.518;2022-11-11T17:55:46;4.22;;;2.03;;
45806;SDS011;31507;51.494;7.518;2022-11-11T17:58:12;4.10;;;2.10;;
45806;SDS011;31507;51.494;7.518;2022-11-11T18:00:37;3.75;;;1.80;;
45806;SDS011;31507;51.494;7.518;2022-11-11T18:03:04;6.80;;;2.17;;
45806;SDS011;31507;51.494;7.518;2022-11-11T18:05:34;4.13;;;2.05;;
45806;SDS011;31507;51.494;7.518;2022-11-11T18:08:00;8.68;;;2.55;;
45806;SDS011;31507;51.494;7.518;2022-11-11T18:10:26;5.13;;;2.10;;
45806;SDS011;31507;51.494;7.518;2022-11-11T18:12:52;4.30;;;2.08;;
45806;SDS011;31507;51.494;7.518;2022-11-11T18:15:17;4.88;;;2.30;;